Time;durP1;ratioP1;P1;durP2;ratioP2;P2;SDS_P1;SDS_P2;PMS_P1;PMS_P2;Temp;Humidity;BMP_temperature;BMP_pressure;BME280_temperature;BME280_humidity;BME280_pressure;Samples;Min_cycle;Max_cycle;Signal;HPM_P1;HPM_P2
2022/02/02 00:00:46;;;;;;;12.55;6.50;;;2.50;99.90;;;;;;5061984;28;20025;-80
2022/02/02 00:03:27;;;;;;;8.85;6.35;;;2.50;99.90;;;;;;5053940;28;20032;-82
2022/02/02 00:08:39;;;;;;;11.82;6.47;;;2.50;99.90;;;;;;5057305;28;20017;-82
2022/02/02 00:20:05;;;;;;;12.32;5.65;;;2.50;99.90;;;;;;5035871;28;20021;-82
2022/02/02 00:22:49;;;;;;;9.40;6.25;;;2.40;99.90;;;;;;5063448;28;20391;-82
2022/02/02 00:25:31;;;;;;;9.27;6.35;;;2.40;99.90;;;;;;5062292;28;20024;-83
2022/02/02 00:28:14;;;;;;;9.25;6.00;;;2.40;99.90;;;;;;5083799;28;20103;-82
2022/02/02 00:30:56;;;;;;;11.48;6.90;;;2.40;99.90;;;;;;5049422;28;20439;-82
2022/02/02 00:33:30;;;;;;;12.95;7.15;;;2.40;99.90;;;;;;5072257;28;20025;-82
2022/02/02 00:36:22;;;;;;;12.88;6.88;;;2.40;99.90;;;;;;5062502;28;20040;-81
2022/02/02 00:38:54;;;;;;;;;;;2.40;99.90;;;;;;5060702;28;20029;-81
2022/02/02 00:45:15;;;;;;;10.73;6.75;;;2.40;99.90;;;;;;5079984;27;20294;-81
2022/02/02 00:48:04;;;;;;;8.77;6.60;;;2.40;99.90;;;;;;5074019;28;20032;-83
2022/02/02 00:51:34;;;;;;;12.93;7.13;;;2.40;99.90;;;;;;5073142;28;20702;-82
2022/02/02 00:53:34;;;;;;;15.13;9.13;;;2.30;99.90;;;;;;5080507;28;21220;-82
2022/02/02 00:56:54;;;;;;;;;;;;;;;;;;;;;
2022/02/02 01:06:02;;;;;;;8.45;5.55;;;2.50;99.90;;;;;;4981351;28;20038;-82
2022/02/02 01:09:34;;;;;;;8.88;5.65;;;2.50;99.90;;;;;;5080363;28;20032;-83
2022/02/02 01:30:13;;;;;;;7.70;5.22;;;2.40;99.90;;;;;;5083642;28;20569;-82
2022/02/02 01:32:54;;;;;;;9.95;6.30;;;2.40;99.90;;;;;;5068359;28;20039;-82
2022/02/02 01:35:25;;;;;;;12.88;6.13;;;2.40;99.90;;;;;;5068030;28;21011;-82
2022/02/02 01:37:56;;;;;;;10.20;5.65;;;2.30;99.90;;;;;;5086101;28;20024;-82
2022/02/02 01:41:17;;;;;;;14.32;5.93;;;2.30;99.90;;;;;;5080254;28;20453;-82
2022/02/02 01:47:00;;;;;;;14.52;7.30;;;2.30;99.90;;;;;;5069776;28;20471;-82
2022/02/02 01:55:49;;;;;;;27.35;11.75;;;2.30;99.90;;;;;;5082667;28;20075;-82
2022/02/02 01:59:44;;;;;;;15.30;7.85;;;2.20;99.90;;;;;;5074356;28;20025;-83
2022/02/02 02:06:07;;;;;;;16.58;8.93;;;2.20;99.90;;;;;;4928367;28;20031;-83
2022/02/02 02:09:02;;;;;;;11.82;7.28;;;2.20;99.90;;;;;;4972054;28;20114;-83
2022/02/02 02:12:01;;;;;;;9.10;5.30;;;2.20;99.90;;;;;;5001850;28;20038;-83
2022/02/02 03:51:34;;;;;;;7.03;3.85;;;3.20;99.90;;;;;;4964165;28;20076;-83
2022/02/02 03:55:02;;;;;;;6.03;4.00;;;3.20;99.90;;;;;;4967962;28;20062;-83
2022/02/02 05:06:29;;;;;;;5.82;3.35;;;3.40;99.90;;;;;;4894327;29;20025;-83
2022/02/02 05:09:16;;;;;;;6.80;3.63;;;3.40;99.90;;;;;;5054520;28;20640;-83
2022/02/02 05:12:53;;;;;;;6.28;3.30;;;3.50;99.90;;;;;;5064312;28;20045;-83
2022/02/02 05:21:04;;;;;;;8.68;3.30;;;3.50;99.90;;;;;;5063666;28;20040;-84
2022/02/02 06:03:54;;;;;;;9.20;2.65;;;3.60;99.90;;;;;;4974314;28;20037;-83
2022/02/02 06:06:49;;;;;;;4.60;2.42;;;3.70;99.90;;;;;;4971561;28;20031;-83
2022/02/02 06:12:47;;;;;;;5.22;3.00;;;3.90;99.90;;;;;;4892295;29;20072;-83
2022/02/02 06:32:29;;;;;;;6.50;3.15;;;4.10;99.90;;;;;;4951593;28;20464;-84
2022/02/02 06:35:12;;;;;;;6.97;3.38;;;4.00;99.90;;;;;;4982690;28;20038;-83
2022/02/02 06:37:53;;;;;;;4.63;2.88;;;4.00;99.90;;;;;;5058226;28;20037;-83
2022/02/02 06:40:23;;;;;;;6.50;3.10;;;4.00;99.90;;;;;;5081573;28;20032;-83
2022/02/02 06:42:55;;;;;;;5.03;3.08;;;4.00;99.90;;;;;;5062618;28;20108;-83
2022/02/02 06:45:36;;;;;;;5.70;3.08;;;4.00;99.90;;;;;;5059880;28;20032;-82
2022/02/02 06:48:18;;;;;;;7.18;3.35;;;4.00;99.90;;;;;;5067626;28;20078;-82
2022/02/02 06:51:34;;;;;;;4.90;3.10;;;4.00;99.90;;;;;;5071952;28;20106;-82
2022/02/02 06:54:27;;;;;;;5.80;3.45;;;4.00;99.90;;;;;;5072965;28;20502;-82
2022/02/02 06:57:32;;;;;;;10.00;3.60;;;4.00;99.90;;;;;;5075341;28;20097;-83
2022/02/02 07:00:17;;;;;;;7.00;3.70;;;4.10;99.90;;;;;;5079171;28;20029;-82
2022/02/02 07:03:11;;;;;;;6.00;4.28;;;4.10;99.90;;;;;;5073985;28;20024;-83
2022/02/02 07:06:26;;;;;;;10.00;3.97;;;4.10;99.90;;;;;;5062411;28;20028;-82
2022/02/02 07:09:22;;;;;;;7.93;4.07;;;4.20;99.90;;;;;;5090170;28;20025;-81
2022/02/02 07:15:11;;;;;;;11.02;4.00;;;4.40;99.90;;;;;;5090104;28;20069;-80
2022/02/02 07:20:25;;;;;;;6.72;2.97;;;4.60;99.90;;;;;;5084307;28;20490;-82
2022/02/02 07:33:43;;;;;;;;;;;5.00;99.90;;;;;;5078219;28;20043;-81
2022/02/02 07:36:16;;;;;;;7.20;3.65;;;5.10;99.90;;;;;;5071636;28;20359;-82
2022/02/02 07:38:51;;;;;;;11.98;5.55;;;5.20;99.90;;;;;;5084543;28;20114;-78
2022/02/02 07:41:33;;;;;;;8.60;3.20;;;5.30;99.90;;;;;;5086404;28;20138;-79
2022/02/02 07:44:16;;;;;;;8.67;3.37;;;5.40;99.90;;;;;;5087859;28;20073;-79
2022/02/02 07:46:59;;;;;;;6.20;3.28;;;5.50;99.90;;;;;;5086095;28;20027;-79
2022/02/02 07:49:31;;;;;;;5.72;3.13;;;5.60;99.90;;;;;;5084861;28;20040;-79
2022/02/02 07:52:00;;;;;;;6.60;3.40;;;5.70;99.90;;;;;;5087839;28;20032;-79
2022/02/02 07:54:48;;;;;;;3.80;3.17;;;5.80;99.90;;;;;;5081917;28;20028;-78
2022/02/02 07:57:19;;;;;;;4.55;2.88;;;5.90;99.90;;;;;;5083113;28;20024;-84
2022/02/02 07:59:54;;;;;;;10.35;3.78;;;6.00;99.90;;;;;;5063633;28;20024;-79
2022/02/02 08:02:34;;;;;;;12.18;7.25;;;6.10;99.90;;;;;;5082485;28;20028;-83
2022/02/02 08:05:04;;;;;;;6.85;3.60;;;6.20;99.90;;;;;;5066739;28;20032;-81
2022/02/02 08:07:41;;;;;;;6.80;3.33;;;6.30;99.90;;;;;;5086814;28;20650;-78
2022/02/02 08:10:25;;;;;;;5.55;3.13;;;6.40;99.90;;;;;;5088631;28;20043;-76
2022/02/02 08:13:08;;;;;;;6.32;3.45;;;6.50;99.90;;;;;;5090702;28;20104;-76
2022/02/02 08:15:34;;;;;;;12.38;3.05;;;6.50;99.90;;;;;;5087019;28;20548;-75
2022/02/02 08:18:01;;;;;;;6.25;3.00;;;6.60;99.90;;;;;;5089598;28;20020;-76
2022/02/02 08:21:22;;;;;;;10.05;3.50;;;6.70;99.90;;;;;;5090098;28;20032;-76
2022/02/02 08:23:34;;;;;;;6.70;3.45;;;6.80;99.90;;;;;;5081166;28;20490;-76
2022/02/02 08:26:14;;;;;;;9.38;3.92;;;7.00;99.90;;;;;;5083361;28;20020;-76
2022/02/02 08:29:01;;;;;;;12.85;5.90;;;7.10;99.90;;;;;;5084668;28;20038;-76
2022/02/02 08:31:27;;;;;;;8.80;4.75;;;7.20;99.90;;;;;;5088839;28;20016;-76
2022/02/02 08:34:00;;;;;;;9.77;4.20;;;7.20;99.90;;;;;;5087968;28;20060;-76
2022/02/02 08:36:29;;;;;;;8.88;3.80;;;7.20;99.90;;;;;;5086084;28;20659;-76
2022/02/02 08:39:52;;;;;;;8.23;3.83;;;7.30;99.90;;;;;;5068911;28;20039;-76
2022/02/02 08:42:04;;;;;;;8.00;3.45;;;7.20;99.90;;;;;;5073292;28;20387;-76
2022/02/02 08:47:27;;;;;;;6.97;3.92;;;7.30;99.90;;;;;;5083087;28;20569;-76
2022/02/02 08:49:59;;;;;;;15.93;5.53;;;7.50;99.90;;;;;;5085356;28;20127;-77
2022/02/02 08:52:40;;;;;;;10.73;4.60;;;7.70;99.90;;;;;;5081635;28;20104;-77
2022/02/02 08:55:14;;;;;;;14.10;4.45;;;7.80;99.90;;;;;;5088082;28;20028;-77
2022/02/02 09:00:24;;;;;;;13.60;7.03;;;8.20;99.90;;;;;;5086114;28;20035;-77
2022/02/02 09:05:18;;;;;;;9.65;5.30;;;8.20;99.90;;;;;;5079994;28;20028;-77
2022/02/02 09:05:41;;;;;;;26.55;9.98;;;8.40;99.90;;;;;;5081796;28;20027;-77
2022/02/02 09:08:10;;;;;;;48.28;23.48;;;8.50;99.90;;;;;;5081946;28;20035;-77
2022/02/02 09:20:03;;;;;;;13.80;7.30;;;8.60;99.90;;;;;;5064967;28;20023;-77
2022/02/02 09:24:45;;;;;;;6.68;3.05;;;9.60;99.90;;;;;;5083917;28;20505;-76
2022/02/02 09:35:00;;;;;;;5.30;2.72;;;10.00;99.90;;;;;;5078641;28;20044;-77
2022/02/02 09:37:27;;;;;;;6.40;3.28;;;10.00;99.90;;;;;;5091027;28;20103;-76
2022/02/02 09:42:43;;;;;;;7.75;3.47;;;10.00;99.90;;;;;;5047305;28;20035;-76
2022/02/02 09:45:14;;;;;;;6.97;3.70;;;10.00;99.90;;;;;;5061828;28;20074;-77
2022/02/02 09:47:46;;;;;;;7.60;3.20;;;10.00;99.90;;;;;;5081175;28;20017;-77
2022/02/02 09:50:22;;;;;;;6.53;2.60;;;10.10;99.90;;;;;;5080367;28;20135;-76
2022/02/02 09:52:56;;;;;;;7.93;2.85;;;10.10;99.90;;;;;;5080428;28;20020;-76
2022/02/02 10:14:17;;;;;;;9.35;3.45;;;10.40;99.90;;;;;;5082303;28;20033;-76
2022/02/02 10:16:45;;;;;;;13.05;4.03;;;10.30;99.90;;;;;;5088422;28;20028;-76
2022/02/02 10:19:16;;;;;;;16.50;7.15;;;10.20;99.90;;;;;;5074745;28;20016;-76
2022/02/02 10:21:46;;;;;;;17.77;6.57;;;10.10;99.90;;;;;;5081276;28;20036;-76
2022/02/02 10:24:12;;;;;;;22.70;8.32;;;10.00;99.90;;;;;;5065399;28;20279;-76
2022/02/02 10:26:49;;;;;;;15.63;6.00;;;9.90;99.90;;;;;;5084115;28;20027;-76
2022/02/02 10:29:16;;;;;;;14.88;6.32;;;9.70;99.90;;;;;;5074822;28;20115;-76
2022/02/02 10:31:55;;;;;;;11.88;5.78;;;9.60;99.90;;;;;;5084192;28;20622;-76
2022/02/02 10:34:22;;;;;;;10.27;5.60;;;9.60;99.90;;;;;;5077353;28;20024;-76
2022/02/02 10:37:17;;;;;;;11.93;6.75;;;9.70;99.90;;;;;;5079848;28;20040;-76
2022/02/02 10:39:48;;;;;;;17.95;7.82;;;9.80;99.90;;;;;;5069829;28;20031;-76
2022/02/02 10:42:40;;;;;;;19.63;7.32;;;9.70;99.90;;;;;;5080456;28;20021;-76
2022/02/02 10:45:20;;;;;;;18.10;8.23;;;9.70;99.90;;;;;;5079436;28;20406;-76
2022/02/02 10:47:56;;;;;;;19.63;7.95;;;9.70;99.90;;;;;;5081229;28;20025;-76
2022/02/02 10:50:35;;;;;;;17.48;7.63;;;9.60;99.90;;;;;;5079580;28;20051;-76
2022/02/02 10:53:40;;;;;;;8.75;6.10;;;9.70;99.90;;;;;;5072469;28;20056;-76
2022/02/02 11:07:35;;;;;;;15.48;5.07;;;9.90;99.90;;;;;;5081572;28;20055;-76
2022/02/02 11:10:01;;;;;;;8.30;3.70;;;10.00;99.90;;;;;;5061086;28;20036;-76
2022/02/02 11:12:30;;;;;;;10.95;4.45;;;10.00;99.90;;;;;;5080191;28;20028;-76
2022/02/02 11:15:02;;;;;;;8.88;4.72;;;10.00;99.90;;;;;;5078345;28;20113;-77
2022/02/02 11:17:41;;;;;;;8.30;4.28;;;10.10;99.90;;;;;;5077690;28;20037;-77
2022/02/02 11:20:08;;;;;;;9.02;5.00;;;10.20;99.90;;;;;;5079218;28;20032;-76
2022/02/02 11:23:12;;;;;;;10.43;4.65;;;10.20;99.90;;;;;;5080479;28;20025;-76
2022/02/02 11:25:49;;;;;;;11.93;4.35;;;10.20;99.90;;;;;;5073211;28;20586;-76
2022/02/02 11:28:27;;;;;;;13.23;5.78;;;10.20;99.90;;;;;;5082134;28;20024;-81
2022/02/02 11:31:15;;;;;;;10.93;4.78;;;10.10;99.90;;;;;;5076417;28;20036;-80
2022/02/02 11:33:53;;;;;;;11.38;4.75;;;10.20;99.90;;;;;;5069212;28;20475;-80
2022/02/02 11:36:30;;;;;;;11.52;4.30;;;10.10;99.90;;;;;;5082493;28;20391;-77
2022/02/02 11:38:58;;;;;;;12.75;4.47;;;10.00;99.90;;;;;;5082508;28;20024;-77
2022/02/02 11:49:22;;;;;;;18.67;4.47;;;9.60;99.90;;;;;;5083096;28;20040;-77
2022/02/02 11:51:51;;;;;;;10.95;4.35;;;9.60;99.90;;;;;;5082349;28;20024;-76
2022/02/02 11:54:18;;;;;;;7.70;4.47;;;9.60;99.90;;;;;;5080929;28;20085;-75
2022/02/02 12:00:15;;;;;;;9.85;4.90;;;9.80;99.90;;;;;;5084719;28;20614;-75
2022/02/02 12:03:10;;;;;;;10.45;4.75;;;10.00;99.90;;;;;;5031086;28;20022;-76
2022/02/02 12:08:38;;;;;;;7.90;3.85;;;10.10;99.90;;;;;;5081253;28;20398;-77
2022/02/02 12:50:13;;;;;;;4.68;3.03;;;14.40;99.90;;;;;;5085673;28;20097;-75
2022/02/02 12:58:12;;;;;;;8.00;2.67;;;14.00;99.90;;;;;;5086339;28;20024;-77
2022/02/02 13:01:07;;;;;;;8.02;2.92;;;14.50;99.90;;;;;;5080583;28;20024;-78
2022/02/02 13:03:29;;;;;;;10.07;3.78;;;14.80;99.90;;;;;;5076508;28;20081;-77
2022/02/02 13:05:55;;;;;;;7.53;3.08;;;15.00;99.90;;;;;;5066124;28;20076;-76
2022/02/02 13:08:21;;;;;;;11.00;3.10;;;15.40;99.90;;;;;;5059032;28;20028;-76
2022/02/02 13:10:49;;;;;;;8.07;3.42;;;15.70;99.90;;;;;;5085265;28;20028;-76
2022/02/02 13:13:27;;;;;;;7.80;2.90;;;16.00;99.90;;;;;;5085056;28;20027;-76
2022/02/02 13:16:14;;;;;;;7.28;2.63;;;16.00;99.90;;;;;;5071098;28;20904;-77
2022/02/02 13:18:44;;;;;;;9.20;2.83;;;16.60;99.90;;;;;;5088692;28;20036;-76
2022/02/02 13:26:23;;;;;;;8.48;3.08;;;18.80;99.90;;;;;;5083675;28;20031;-76
2022/02/02 13:34:26;;;;;;;11.60;2.88;;;18.10;94.70;;;;;;5084038;28;20084;-76
2022/02/02 13:37:11;;;;;;;9.30;3.60;;;18.60;95.10;;;;;;5062355;28;20495;-77
2022/02/02 13:48:52;;;;;;;11.20;4.78;;;21.30;77.20;;;;;;5048564;28;20071;-76
2022/02/02 13:54:18;;;;;;;13.55;4.47;;;20.90;79.30;;;;;;5086319;28;20031;-77
2022/02/02 14:01:45;;;;;;;12.63;5.13;;;21.90;73.30;;;;;;5082960;28;20658;-76
2022/02/02 14:04:35;;;;;;;;;;;21.50;72.00;;;;;;5084119;28;20115;-77
2022/02/02 14:31:16;;;;;;;24.75;14.65;;;17.90;73.90;;;;;;5078564;28;20036;-76
2022/02/02 14:33:47;;;;;;;12.65;6.60;;;16.50;80.30;;;;;;5067771;28;20033;-76
2022/02/02 14:36:17;;;;;;;7.53;4.00;;;15.70;84.30;;;;;;5081654;28;20072;-77
2022/02/02 14:41:19;;;;;;;9.63;5.13;;;14.90;90.00;;;;;;5079194;28;20112;-76
2022/02/02 14:46:55;;;;;;;32.65;20.30;;;16.10;87.40;;;;;;5084642;28;20036;-77
2022/02/02 14:49:32;;;;;;;15.95;9.43;;;16.90;84.60;;;;;;5076225;28;20115;-76
2022/02/02 15:32:00;;;;;;;8.52;3.28;;;14.00;99.90;;;;;;5085976;28;20032;-76
2022/02/02 15:34:35;;;;;;;7.72;3.80;;;13.80;99.90;;;;;;5087442;28;20032;-77
2022/02/02 15:37:16;;;;;;;10.43;3.03;;;13.50;99.90;;;;;;5074824;28;20080;-76
2022/02/02 15:39:47;;;;;;;5.68;2.83;;;13.30;99.90;;;;;;5087431;28;20479;-76
2022/02/02 15:58:22;;;;;;;8.82;3.70;;;11.50;99.90;;;;;;5074193;28;20110;-76
2022/02/02 16:03:25;;;;;;;13.20;3.63;;;10.00;99.90;;;;;;5069582;28;20016;-76
2022/02/02 16:05:57;;;;;;;9.27;2.58;;;9.60;99.90;;;;;;5065735;28;20028;-75
2022/02/02 16:08:25;;;;;;;8.10;2.70;;;9.20;99.90;;;;;;5077817;28;20107;-75
2022/02/02 16:11:16;;;;;;;7.63;3.10;;;9.10;99.90;;;;;;5043607;28;20394;-75
2022/02/02 16:13:42;;;;;;;6.63;2.92;;;8.90;99.90;;;;;;5070130;28;20020;-75
2022/02/02 16:16:26;;;;;;;11.45;3.72;;;8.80;99.90;;;;;;5066983;28;20041;-75
2022/02/02 16:19:05;;;;;;;7.78;2.42;;;8.70;99.90;;;;;;5061165;28;20028;-76
2022/02/02 16:37:59;;;;;;;11.05;6.70;;;8.30;99.90;;;;;;5068112;28;20049;-78
2022/02/02 16:40:31;;;;;;;25.55;10.85;;;8.20;99.90;;;;;;5067412;28;20060;-80
2022/02/02 16:45:35;;;;;;;19.75;9.30;;;7.90;99.90;;;;;;5063306;28;20029;-80
2022/02/02 16:48:13;;;;;;;11.55;7.43;;;7.70;99.90;;;;;;5064181;28;20016;-83
2022/02/02 16:50:42;;;;;;;18.67;7.55;;;7.60;99.90;;;;;;5073623;28;20036;-79
2022/02/02 16:53:24;;;;;;;13.38;6.97;;;7.50;99.90;;;;;;5072155;28;20097;-79
2022/02/02 16:56:15;;;;;;;15.32;8.30;;;7.40;99.90;;;;;;5088958;28;20624;-79
2022/02/02 17:31:05;;;;;;;17.52;9.88;;;7.10;99.90;;;;;;5081803;28;20035;-79
2022/02/02 17:33:44;;;;;;;21.73;10.23;;;7.10;99.90;;;;;;5090607;28;20023;-80
2022/02/02 18:20:12;;;;;;;26.60;13.95;;;5.80;99.90;;;;;;5084925;28;20042;-75
2022/02/02 18:22:48;;;;;;;21.77;12.65;;;5.80;99.90;;;;;;5094899;28;20541;-76
2022/02/02 18:25:42;;;;;;;25.50;13.30;;;5.70;99.90;;;;;;5072188;28;20048;-76
2022/02/02 18:30:59;;;;;;;23.00;14.90;;;5.50;99.90;;;;;;5081696;28;20043;-75
2022/02/02 18:36:02;;;;;;;22.30;11.30;;;5.60;99.90;;;;;;5079570;28;20032;-75
2022/02/02 18:55:31;;;;;;;14.90;8.77;;;5.80;99.90;;;;;;5080333;28;20181;-77
2022/02/02 19:00:51;;;;;;;16.15;10.40;;;5.80;99.90;;;;;;5084082;28;20165;-76
2022/02/02 19:31:17;;;;;;;23.52;10.60;;;5.40;99.90;;;;;;5083693;28;20680;-76
2022/02/02 19:56:39;;;;;;;19.23;8.45;;;5.40;99.90;;;;;;5031371;28;20404;-76
2022/02/02 20:02:14;;;;;;;9.30;5.93;;;5.50;99.90;;;;;;5068546;28;20044;-76
2022/02/02 20:04:58;;;;;;;13.60;6.43;;;5.50;99.90;;;;;;5080465;28;20470;-76
2022/02/02 20:12:37;;;;;;;13.45;7.55;;;5.40;99.90;;;;;;5070018;28;20025;-77
2022/02/02 20:15:10;;;;;;;11.45;5.43;;;5.40;99.90;;;;;;5072221;28;20030;-76
2022/02/02 20:17:37;;;;;;;6.75;4.22;;;5.40;99.90;;;;;;5060380;28;20064;-76
2022/02/02 20:20:16;;;;;;;10.27;5.25;;;5.50;99.90;;;;;;5062425;28;20084;-77
2022/02/02 20:22:45;;;;;;;6.85;3.97;;;5.60;99.90;;;;;;5073432;28;20035;-76
2022/02/02 20:25:13;;;;;;;12.32;7.40;;;5.70;99.90;;;;;;5088774;28;20021;-76
2022/02/02 20:27:53;;;;;;;8.85;3.97;;;5.80;99.90;;;;;;5076276;28;20032;-77
2022/02/02 20:30:22;;;;;;;17.75;8.57;;;5.80;99.90;;;;;;5064505;28;20016;-77
2022/02/02 20:33:09;;;;;;;8.32;4.20;;;5.90;99.90;;;;;;5065297;28;20095;-76
2022/02/02 20:35:35;;;;;;;7.22;3.38;;;5.90;99.90;;;;;;5063599;28;20071;-76
2022/02/02 20:38:05;;;;;;;6.57;3.88;;;6.00;99.90;;;;;;5066664;28;20306;-77
2022/02/02 20:40:31;;;;;;;7.32;3.70;;;6.00;99.90;;;;;;5064348;28;20028;-77
2022/02/02 20:43:06;;;;;;;6.20;3.20;;;6.00;99.90;;;;;;5068621;28;20079;-80
2022/02/02 21:09:58;;;;;;;3.63;2.15;;;6.80;99.90;;;;;;5092117;28;20090;-78
2022/02/02 21:15:22;;;;;;;4.57;2.30;;;6.80;99.90;;;;;;5084678;28;20086;-80
2022/02/02 21:17:48;;;;;;;3.60;2.13;;;6.80;99.90;;;;;;5083684;28;20028;-79
2022/02/02 21:28:40;;;;;;;1.45;1.35;;;7.00;99.90;;;;;;5086489;28;20043;-79
2022/02/02 21:31:08;;;;;;;4.28;1.55;;;7.10;99.90;;;;;;5072753;28;20059;-79
2022/02/02 21:33:58;;;;;;;2.03;1.25;;;7.20;99.90;;;;;;5088854;28;20016;-79
2022/02/02 21:36:24;;;;;;;2.63;1.38;;;7.30;99.90;;;;;;5083479;28;20123;-80
2022/02/02 21:39:07;;;;;;;2.25;1.60;;;7.30;99.90;;;;;;5079572;28;20106;-78
2022/02/02 21:41:40;;;;;;;2.55;1.85;;;7.30;99.90;;;;;;5068142;28;20059;-78
2022/02/02 21:44:09;;;;;;;2.28;1.40;;;7.40;99.90;;;;;;5069670;28;20016;-79
2022/02/02 21:46:43;;;;;;;2.13;1.45;;;7.50;99.90;;;;;;5066072;28;20037;-78
2022/02/02 21:49:19;;;;;;;3.22;1.30;;;7.50;99.90;;;;;;5086945;28;20046;-90
2022/02/02 21:52:05;;;;;;;1.70;1.35;;;7.60;99.90;;;;;;5064644;28;20051;-80
2022/02/02 21:54:52;;;;;;;1.55;1.20;;;7.70;99.90;;;;;;5065885;28;20394;-79
2022/02/02 21:57:17;;;;;;;1.70;0.98;;;7.80;99.90;;;;;;5081037;28;20040;-79
2022/02/02 21:59:49;;;;;;;1.83;1.30;;;7.80;99.90;;;;;;5087736;28;20035;-78
2022/02/02 22:02:18;;;;;;;1.83;1.20;;;7.80;99.90;;;;;;5064595;28;20037;-79
2022/02/02 22:04:43;;;;;;;2.50;1.40;;;7.70;99.90;;;;;;5077377;28;20055;-79
2022/02/02 22:07:18;;;;;;;4.35;1.60;;;7.60;99.90;;;;;;5083784;28;20048;-78
2022/02/02 22:09:49;;;;;;;2.47;1.48;;;7.60;99.90;;;;;;5092584;28;20392;-79
2022/02/02 22:12:27;;;;;;;3.50;1.50;;;7.50;99.90;;;;;;5084350;28;20028;-79
2022/02/02 22:15:16;;;;;;;1.98;1.35;;;7.60;99.90;;;;;;5070787;28;20037;-78
2022/02/02 22:17:46;;;;;;;2.03;1.55;;;7.60;99.90;;;;;;5083892;28;20483;-79
2022/02/02 22:20:14;;;;;;;2.38;1.42;;;7.60;99.90;;;;;;5081469;28;20028;-80
2022/02/02 22:22:43;;;;;;;3.67;1.60;;;7.60;99.90;;;;;;5070904;28;20050;-78
2022/02/02 22:25:10;;;;;;;2.15;1.42;;;7.50;99.90;;;;;;5071860;28;20061;-79
2022/02/02 22:27:42;;;;;;;4.68;1.35;;;7.50;99.90;;;;;;5062566;28;20021;-77
2022/02/02 22:30:09;;;;;;;1.98;1.40;;;7.50;99.90;;;;;;5061189;28;20032;-77
2022/02/02 22:32:41;;;;;;;4.05;1.42;;;7.70;99.90;;;;;;5084343;28;20017;-79
2022/02/02 22:35:08;;;;;;;1.33;1.10;;;7.70;99.90;;;;;;5070072;28;20390;-78
2022/02/02 22:38:07;;;;;;;2.83;1.10;;;7.70;99.90;;;;;;5082109;28;20115;-79
2022/02/02 22:40:34;;;;;;;1.60;1.13;;;7.70;99.90;;;;;;5059681;28;20077;-80
2022/02/02 22:43:00;;;;;;;2.05;1.27;;;7.60;99.90;;;;;;5073895;28;20494;-80
2022/02/02 22:45:41;;;;;;;1.98;1.08;;;7.50;99.90;;;;;;5075364;28;20039;-80
2022/02/02 22:48:26;;;;;;;1.40;1.10;;;7.40;99.90;;;;;;5077444;28;20025;-79
2022/02/02 22:50:55;;;;;;;2.35;1.63;;;7.40;99.90;;;;;;5069713;28;20052;-80
2022/02/02 22:53:24;;;;;;;2.20;1.40;;;7.40;99.90;;;;;;5084804;28;20024;-77
2022/02/02 22:59:22;;;;;;;1.50;1.05;;;7.40;99.90;;;;;;5006719;28;20041;-81
2022/02/02 23:01:58;;;;;;;1.48;0.95;;;7.40;99.90;;;;;;5007000;28;20559;-82
2022/02/02 23:04:33;;;;;;;1.60;0.70;;;7.40;99.90;;;;;;5059811;28;20418;-83
2022/02/02 23:07:04;;;;;;;1.67;1.00;;;7.40;99.90;;;;;;5078886;28;20103;-83
2022/02/02 23:13:31;;;;;;;1.73;1.00;;;7.30;99.90;;;;;;5079004;28;20398;-83
2022/02/02 23:16:17;;;;;;;1.88;1.00;;;7.40;99.90;;;;;;5078270;28;20067;-80
2022/02/02 23:18:43;;;;;;;0.90;0.80;;;7.30;99.90;;;;;;5088102;28;20024;-82
2022/02/02 23:21:11;;;;;;;1.08;0.75;;;7.40;99.90;;;;;;5085914;28;20028;-81
